createdAt,value
2019-03-21T00:01:48.554Z,9.60
2019-03-21T00:04:57.800Z,13.93
2019-03-21T00:08:05.384Z,9.57
2019-03-21T00:11:49.401Z,17.40
2019-03-21T00:15:17.893Z,19.80
2019-03-21T00:18:25.261Z,16.77
2019-03-21T00:21:32.311Z,9.00
2019-03-21T00:24:41.236Z,9.70
2019-03-21T00:27:48.339Z,6.90
2019-03-21T00:30:56.783Z,12.60
2019-03-21T00:34:03.801Z,9.23
2019-03-21T00:37:11.171Z,6.30
2019-03-21T00:40:21.205Z,6.00
2019-03-21T00:43:28.267Z,6.13
2019-03-21T00:46:35.610Z,12.40
2019-03-21T00:49:43.214Z,10.87
2019-03-21T00:52:51.823Z,7.63
2019-03-21T00:55:59.247Z,6.03
2019-03-21T00:59:06.393Z,9.20
2019-03-21T01:02:13.894Z,11.43
2019-03-21T01:05:20.766Z,23.47
2019-03-21T01:08:27.638Z,5.77
2019-03-21T01:11:37.013Z,8.70
2019-03-21T01:14:43.870Z,6.90
2019-03-21T01:17:51.014Z,4.30
2019-03-21T01:20:58.211Z,6.83
2019-03-21T01:24:05.339Z,4.17
2019-03-21T01:27:12.493Z,4.10
2019-03-21T01:30:19.661Z,5.07
2019-03-21T01:33:26.665Z,5.77
2019-03-21T01:36:35.391Z,3.80
2019-03-21T01:39:42.329Z,3.70
2019-03-21T01:42:49.464Z,6.73
2019-03-21T01:45:56.497Z,7.00
2019-03-21T01:49:03.764Z,6.67
2019-03-21T01:52:10.932Z,6.30
2019-03-21T01:55:17.940Z,7.60
2019-03-21T01:58:25.135Z,3.60
2019-03-21T02:01:32.523Z,9.83
2019-03-21T02:04:39.541Z,5.07
2019-03-21T02:07:46.690Z,3.40
2019-03-21T02:10:53.685Z,4.77
2019-03-21T02:14:01.079Z,3.60
2019-03-21T02:17:08.316Z,3.30
2019-03-21T02:20:16.385Z,3.10
2019-03-21T02:23:23.551Z,5.90
2019-03-21T02:26:30.894Z,3.13
2019-03-21T02:29:38.298Z,4.40
2019-03-21T02:32:45.750Z,4.00
2019-03-21T02:35:52.679Z,3.13
2019-03-21T02:38:59.760Z,4.23
2019-03-21T02:42:06.760Z,2.77
2019-03-21T02:45:14.979Z,5.50
2019-03-21T02:48:22.311Z,4.20
2019-03-21T02:51:29.613Z,2.90
2019-03-21T02:54:36.870Z,4.93
2019-03-21T02:57:43.962Z,10.13
2019-03-21T03:00:50.771Z,5.07
2019-03-21T03:03:57.976Z,5.13
2019-03-21T03:07:05.237Z,9.73
2019-03-21T03:10:14.097Z,3.07
2019-03-21T03:13:21.097Z,2.60
2019-03-21T03:16:28.084Z,3.00
2019-03-21T03:19:34.934Z,2.30
2019-03-21T03:22:42.105Z,2.53
2019-03-21T03:25:51.206Z,3.47
2019-03-21T03:28:58.125Z,3.47
2019-03-21T03:32:05.186Z,6.90
2019-03-21T03:35:12.996Z,2.03
2019-03-21T03:38:20.019Z,3.20
2019-03-21T03:41:27.495Z,3.30
2019-03-21T03:44:34.190Z,6.90
2019-03-21T03:47:41.341Z,3.23
2019-03-21T03:50:48.101Z,2.97
2019-03-21T03:53:55.198Z,3.13
2019-03-21T03:57:02.162Z,2.43
2019-03-21T04:00:11.673Z,4.23
2019-03-21T04:03:18.589Z,2.60
2019-03-21T04:06:25.636Z,2.23
2019-03-21T04:09:32.589Z,2.37
2019-03-21T04:12:40.855Z,7.23
2019-03-21T04:15:52.978Z,2.60
2019-03-21T04:18:56.919Z,2.07
2019-03-21T04:22:04.120Z,3.83
2019-03-21T04:25:12.670Z,3.33
2019-03-21T04:28:20.339Z,2.90
2019-03-21T04:31:27.804Z,3.67
2019-03-21T04:34:34.845Z,3.17
2019-03-21T04:37:42.555Z,2.00
2019-03-21T04:40:49.796Z,5.17
2019-03-21T04:43:56.965Z,3.37
2019-03-21T04:47:04.818Z,3.37
2019-03-21T04:50:14.621Z,2.27
2019-03-21T04:53:21.784Z,3.43
2019-03-21T04:56:28.605Z,2.73
2019-03-21T04:59:36.509Z,2.67
2019-03-21T05:02:43.758Z,3.30
2019-03-21T05:05:51.321Z,3.30
2019-03-21T05:08:58.329Z,5.90
2019-03-21T05:12:06.209Z,5.00
2019-03-21T05:15:18.990Z,4.73
2019-03-21T05:18:29.530Z,2.60
2019-03-21T05:21:37.550Z,3.03
2019-03-21T05:24:44.387Z,2.37
2019-03-21T05:27:51.094Z,4.00
2019-03-21T05:31:01.524Z,3.03
2019-03-21T05:34:08.343Z,4.53
2019-03-21T05:37:16.253Z,4.70
2019-03-21T05:40:23.909Z,3.13
2019-03-21T05:43:35.153Z,5.43
2019-03-21T05:46:42.504Z,3.60
2019-03-21T05:49:49.589Z,3.20
2019-03-21T05:52:56.800Z,3.67
2019-03-21T05:56:04.247Z,4.33
2019-03-21T05:59:11.506Z,5.70
2019-03-21T06:02:18.550Z,3.13
2019-03-21T06:05:25.479Z,4.53
2019-03-21T06:08:34.748Z,6.07
2019-03-21T06:11:43.630Z,5.50
2019-03-21T06:14:57.322Z,4.50
2019-03-21T06:18:52.420Z,5.13
2019-03-21T06:22:23.861Z,3.53
2019-03-21T06:25:55.278Z,3.20
2019-03-21T06:29:02.256Z,3.97
2019-03-21T06:32:09.547Z,4.00
2019-03-21T06:35:23.710Z,4.53
2019-03-21T06:38:30.662Z,3.07
2019-03-21T06:41:38.124Z,3.40
2019-03-21T06:44:45.257Z,7.37
2019-03-21T06:47:53.277Z,7.33
2019-03-21T06:51:00.683Z,9.87
2019-03-21T06:54:07.648Z,8.73
2019-03-21T06:57:15.293Z,7.20
2019-03-21T07:00:24.837Z,5.00
2019-03-21T07:03:31.387Z,6.33
2019-03-21T07:06:38.628Z,9.50
2019-03-21T07:09:45.503Z,10.73
2019-03-21T07:12:52.572Z,4.30
2019-03-21T07:15:59.843Z,9.87
2019-03-21T07:19:06.840Z,5.50
2019-03-21T07:22:13.720Z,7.03
2019-03-21T07:25:21.111Z,3.67
2019-03-21T07:28:28.054Z,3.77
2019-03-21T07:31:35.908Z,2.93
2019-03-21T07:34:43.849Z,2.93
2019-03-21T07:37:50.862Z,3.27
2019-03-21T07:40:57.963Z,3.40
2019-03-21T07:44:04.651Z,8.00
2019-03-21T07:47:13.326Z,5.17
2019-03-21T07:50:22.332Z,6.23
2019-03-21T07:53:29.630Z,3.43
2019-03-21T07:56:36.946Z,12.23
2019-03-21T07:59:43.896Z,7.13
2019-03-21T08:02:50.870Z,5.43
2019-03-21T08:05:58.179Z,6.40
2019-03-21T08:09:07.480Z,5.37
2019-03-21T08:12:15.272Z,6.33
2019-03-21T08:15:22.103Z,11.23
2019-03-21T08:18:29.108Z,8.27
2019-03-21T08:21:36.534Z,11.17
2019-03-21T08:24:43.494Z,9.30
2019-03-21T08:27:51.871Z,6.10
2019-03-21T08:31:33.136Z,8.10
2019-03-21T08:34:40.731Z,6.57
2019-03-21T08:37:48.004Z,6.43
2019-03-21T08:40:56.559Z,7.03
2019-03-21T08:44:06.323Z,7.63
2019-03-21T08:47:14.264Z,8.47
2019-03-21T08:50:21.665Z,9.90
2019-03-21T08:53:28.832Z,6.47
2019-03-21T08:56:36.735Z,8.20
2019-03-21T08:59:44.482Z,14.30
2019-03-21T09:02:54.221Z,11.03
2019-03-21T09:06:01.609Z,10.70
2019-03-21T09:09:10.025Z,5.50
2019-03-21T09:12:18.256Z,9.60
2019-03-21T09:15:25.298Z,5.30
2019-03-21T09:18:32.506Z,4.40
2019-03-21T09:21:40.077Z,6.60
2019-03-21T09:24:47.609Z,10.30
2019-03-21T09:28:02.571Z,5.60
2019-03-21T09:31:03.569Z,6.10
2019-03-21T09:34:10.609Z,11.17
2019-03-21T09:37:18.114Z,10.63
2019-03-21T09:40:25.711Z,13.03
2019-03-21T09:43:33.060Z,7.63
2019-03-21T09:46:50.434Z,11.37
2019-03-21T09:49:48.917Z,7.57
2019-03-21T09:52:56.120Z,6.23
2019-03-21T09:56:03.146Z,8.20
2019-03-21T09:59:10.326Z,6.87
2019-03-21T10:02:17.246Z,8.93
2019-03-21T10:05:24.257Z,4.17
2019-03-21T10:08:31.870Z,10.00
2019-03-21T10:11:39.532Z,8.20
2019-03-21T10:14:48.362Z,4.03
2019-03-21T10:17:55.716Z,5.37
2019-03-21T10:21:03.248Z,10.53
2019-03-21T10:24:10.739Z,4.50
2019-03-21T10:27:17.847Z,8.37
2019-03-21T10:30:41.302Z,4.67
2019-03-21T10:33:48.637Z,3.87
2019-03-21T10:37:01.381Z,4.00
2019-03-21T10:40:08.898Z,4.17
2019-03-21T10:43:18.889Z,4.03
2019-03-21T10:46:25.982Z,7.67
2019-03-21T10:49:32.968Z,3.83
2019-03-21T10:52:40.204Z,6.33
2019-03-21T10:55:47.912Z,6.30
2019-03-21T10:58:55.097Z,5.53
2019-03-21T11:02:07.579Z,6.53
2019-03-21T11:05:12.121Z,3.43
2019-03-21T11:08:22.089Z,4.63
2019-03-21T11:11:29.571Z,5.17
2019-03-21T11:14:36.868Z,6.03
2019-03-21T11:17:44.437Z,4.30
2019-03-21T11:20:51.860Z,7.23
2019-03-21T11:23:58.981Z,2.90
2019-03-21T11:27:06.187Z,6.80
2019-03-21T11:30:16.898Z,5.17
2019-03-21T11:33:23.999Z,3.63
2019-03-21T11:36:38.153Z,5.77
2019-03-21T11:39:40.184Z,11.87
2019-03-21T11:42:47.230Z,8.60
2019-03-21T11:45:55.386Z,3.57
2019-03-21T11:49:02.752Z,4.30
2019-03-21T11:52:18.244Z,5.53
2019-03-21T11:55:19.193Z,3.83
2019-03-21T11:58:26.694Z,4.23
2019-03-21T12:01:35.114Z,7.07
2019-03-21T12:04:41.968Z,4.40
2019-03-21T12:07:49.177Z,4.70
2019-03-21T12:10:56.595Z,7.43
2019-03-21T12:14:03.733Z,5.87
2019-03-21T12:17:12.834Z,4.47
2019-03-21T12:20:39.152Z,5.47
2019-03-21T12:23:46.790Z,8.83
2019-03-21T12:26:54.471Z,11.20
2019-03-21T12:30:01.532Z,7.83
2019-03-21T12:33:08.686Z,11.00
2019-03-21T12:36:18.650Z,10.27
2019-03-21T12:39:25.555Z,11.40
2019-03-21T12:42:32.728Z,8.27
2019-03-21T12:45:39.662Z,7.37
2019-03-21T12:48:47.105Z,7.60
2019-03-21T12:51:54.176Z,9.20
2019-03-21T12:55:01.551Z,8.90
2019-03-21T12:58:08.850Z,7.57
2019-03-21T13:01:16.505Z,11.27
2019-03-21T13:04:24.174Z,12.20
2019-03-21T13:07:31.374Z,9.87
2019-03-21T13:10:39.422Z,10.90
2019-03-21T13:13:47.157Z,9.87
2019-03-21T13:16:54.264Z,11.50
2019-03-21T13:20:01.161Z,11.67
2019-03-21T13:23:08.712Z,7.57
2019-03-21T13:26:18.914Z,10.77
2019-03-21T13:29:26.055Z,8.83
2019-03-21T13:32:33.293Z,13.30
2019-03-21T13:35:40.894Z,15.97
2019-03-21T13:38:48.128Z,7.97
2019-03-21T13:41:55.198Z,6.30
2019-03-21T13:45:02.551Z,7.50
2019-03-21T13:48:09.380Z,10.10
2019-03-21T13:51:16.782Z,5.60
2019-03-21T13:54:24.258Z,7.03
2019-03-21T13:57:31.755Z,9.17
2019-03-21T14:00:40.972Z,6.93
2019-03-21T14:03:47.560Z,7.93
2019-03-21T14:06:54.643Z,6.43
2019-03-21T14:10:02.075Z,8.33
2019-03-21T14:13:09.091Z,5.83
2019-03-21T14:16:16.257Z,6.40
2019-03-21T14:19:23.303Z,7.37
2019-03-21T14:22:30.415Z,5.80
2019-03-21T14:25:37.742Z,7.03
2019-03-21T14:28:45.197Z,6.80
2019-03-21T14:31:52.153Z,6.87
2019-03-21T14:34:59.604Z,8.87
2019-03-21T14:38:07.275Z,13.70
2019-03-21T14:41:14.447Z,8.13
2019-03-21T14:44:21.553Z,8.80
2019-03-21T14:47:36.070Z,6.63
2019-03-21T14:50:38.428Z,7.53
2019-03-21T14:53:45.924Z,7.53
2019-03-21T14:56:53.170Z,5.70
2019-03-21T15:00:00.658Z,4.27
2019-03-21T15:03:07.779Z,5.97
2019-03-21T15:06:16.438Z,5.93
2019-03-21T15:09:23.438Z,4.10
2019-03-21T15:12:31.334Z,10.33
2019-03-21T15:15:38.030Z,6.30
2019-03-21T15:18:45.172Z,6.17
2019-03-21T15:21:52.131Z,11.23
2019-03-21T15:24:59.366Z,5.57
2019-03-21T15:28:06.393Z,9.40
2019-03-21T15:31:14.651Z,9.37
2019-03-21T15:34:22.888Z,9.23
2019-03-21T15:37:30.135Z,8.00
2019-03-21T15:40:37.539Z,9.57
2019-03-21T15:43:46.821Z,8.00
2019-03-21T15:46:54.361Z,10.13
2019-03-21T15:50:01.792Z,12.60
2019-03-21T15:53:09.832Z,9.47
2019-03-21T15:56:16.832Z,12.80
2019-03-21T15:59:24.390Z,16.57
2019-03-21T16:02:32.287Z,15.50
2019-03-21T16:05:40.028Z,9.70
2019-03-21T16:08:47.178Z,13.90
2019-03-21T16:11:54.587Z,8.63
2019-03-21T16:15:01.809Z,15.23
2019-03-21T16:18:09.146Z,16.00
2019-03-21T16:21:16.482Z,16.13
2019-03-21T16:24:23.617Z,19.00
2019-03-21T16:27:31.134Z,21.23
2019-03-21T16:30:38.083Z,15.50
2019-03-21T16:33:46.449Z,16.20
2019-03-21T16:36:54.142Z,16.17
2019-03-21T16:40:01.106Z,23.80
2019-03-21T16:43:08.379Z,10.33
2019-03-21T16:46:15.677Z,12.43
2019-03-21T16:49:23.284Z,13.93
2019-03-21T16:52:30.235Z,7.90
2019-03-21T16:55:38.077Z,14.07
2019-03-21T16:58:45.769Z,15.87
2019-03-21T17:01:52.977Z,16.70
2019-03-21T17:05:00.609Z,20.47
2019-03-21T17:08:11.522Z,11.27
2019-03-21T17:11:17.112Z,40.07
2019-03-21T17:14:24.119Z,15.20
2019-03-21T17:17:31.236Z,12.07
2019-03-21T17:20:38.574Z,4.53
2019-03-21T17:23:45.582Z,7.33
2019-03-21T17:26:52.948Z,4.50
2019-03-21T17:30:00.442Z,2.90
2019-03-21T17:33:07.926Z,2.03
2019-03-21T17:36:14.901Z,3.27
2019-03-21T17:39:23.777Z,6.50
2019-03-21T17:42:31.168Z,13.30
2019-03-21T17:45:38.780Z,11.37
2019-03-21T17:48:46.194Z,3.30
2019-03-21T17:51:53.406Z,7.90
2019-03-21T17:55:00.593Z,4.87
2019-03-21T17:58:07.996Z,6.83
2019-03-21T18:01:15.621Z,10.10
2019-03-21T18:04:22.707Z,7.37
2019-03-21T18:07:30.139Z,7.67
2019-03-21T18:10:38.241Z,14.57
2019-03-21T18:13:46.221Z,20.10
2019-03-21T18:16:54.002Z,34.77
2019-03-21T18:20:01.110Z,58.43
2019-03-21T18:23:08.642Z,62.37
2019-03-21T18:26:16.288Z,26.10
2019-03-21T18:29:23.756Z,23.13
2019-03-21T18:32:31.027Z,10.77
2019-03-21T18:35:39.137Z,19.30
2019-03-21T18:38:57.486Z,18.90
2019-03-21T18:41:56.763Z,10.50
2019-03-21T18:45:03.655Z,10.33
2019-03-21T18:48:12.129Z,13.60
2019-03-21T18:51:19.862Z,13.97
2019-03-21T18:54:27.172Z,11.07
2019-03-21T18:57:34.170Z,10.73
2019-03-21T19:00:41.222Z,9.37
2019-03-21T19:03:48.562Z,13.20
2019-03-21T19:06:55.839Z,9.47
2019-03-21T19:10:04.336Z,9.27
2019-03-21T19:13:11.842Z,8.40
2019-03-21T19:16:19.451Z,7.20
2019-03-21T19:19:26.992Z,9.13
2019-03-21T19:22:34.369Z,6.33
2019-03-21T19:25:41.926Z,5.60
2019-03-21T19:28:50.669Z,9.80
2019-03-21T19:31:58.529Z,8.57
2019-03-21T19:35:06.936Z,8.27
2019-03-21T19:38:15.890Z,6.77
2019-03-21T19:41:24.732Z,4.47
2019-03-21T19:44:32.455Z,9.70
2019-03-21T19:47:39.849Z,6.50
2019-03-21T19:50:47.154Z,11.47
2019-03-21T19:53:55.673Z,9.90
2019-03-21T19:57:03.407Z,7.60
2019-03-21T20:00:15.785Z,6.10
2019-03-21T20:03:22.970Z,6.90
2019-03-21T20:06:30.183Z,8.60
2019-03-21T20:09:37.341Z,7.93
2019-03-21T20:12:45.302Z,10.07
2019-03-21T20:15:52.432Z,12.07
2019-03-21T20:18:59.948Z,7.47
2019-03-21T20:22:07.175Z,9.10
2019-03-21T20:25:18.222Z,6.77
2019-03-21T20:28:25.967Z,9.20
2019-03-21T20:31:33.431Z,6.17
2019-03-21T20:34:42.007Z,5.97
2019-03-21T20:37:49.578Z,6.73
2019-03-21T20:40:56.514Z,7.90
2019-03-21T20:44:14.712Z,12.63
2019-03-21T20:47:14.303Z,5.97
2019-03-21T20:50:21.810Z,9.13
2019-03-21T20:53:29.368Z,7.20
2019-03-21T20:56:37.755Z,10.57
2019-03-21T20:59:45.369Z,8.00
2019-03-21T21:02:53.026Z,7.37
2019-03-21T21:06:01.689Z,8.53
2019-03-21T21:09:09.696Z,7.30
2019-03-21T21:12:17.423Z,6.80
2019-03-21T21:15:24.576Z,7.40
2019-03-21T21:18:31.928Z,9.40
2019-03-21T21:21:39.200Z,14.87
2019-03-21T21:24:46.302Z,21.43
2019-03-21T21:27:53.397Z,26.23
2019-03-21T21:31:00.636Z,25.97
2019-03-21T21:34:07.934Z,27.23
2019-03-21T21:37:15.187Z,37.03
2019-03-21T21:40:22.549Z,46.80
2019-03-21T21:43:29.435Z,39.43
2019-03-21T21:46:37.182Z,38.60
2019-03-21T21:49:44.716Z,29.37
2019-03-21T21:52:51.978Z,38.43
2019-03-21T21:55:59.074Z,41.43
2019-03-21T21:59:05.998Z,33.60
2019-03-21T22:02:13.308Z,32.43
2019-03-21T22:05:20.832Z,29.80
2019-03-21T22:08:27.845Z,28.77
2019-03-21T22:11:35.547Z,16.83
2019-03-21T22:14:43.036Z,12.33
2019-03-21T22:17:50.275Z,12.40
2019-03-21T22:20:57.481Z,15.23
2019-03-21T22:24:08.203Z,14.27
2019-03-21T22:27:15.543Z,18.80
2019-03-21T22:30:22.994Z,8.70
2019-03-21T22:33:30.650Z,9.40
2019-03-21T22:36:48.826Z,11.93
2019-03-21T22:39:47.739Z,11.57
2019-03-21T22:42:54.671Z,11.93
2019-03-21T22:46:01.657Z,10.10
2019-03-21T22:49:08.782Z,10.37
2019-03-21T22:52:16.016Z,9.97
2019-03-21T22:55:23.292Z,12.43
2019-03-21T22:58:31.888Z,10.00
2019-03-21T23:01:39.723Z,9.07
2019-03-21T23:05:39.321Z,8.43
2019-03-21T23:17:44.522Z,15.57
2019-03-21T23:20:51.143Z,28.60
2019-03-21T23:23:57.853Z,14.40
2019-03-21T23:27:05.110Z,15.53
2019-03-21T23:30:12.732Z,16.20
2019-03-21T23:33:20.387Z,13.50
2019-03-21T23:36:27.409Z,12.60
2019-03-21T23:39:34.720Z,14.87
2019-03-21T23:42:41.534Z,9.90
2019-03-21T23:45:48.368Z,14.30
2019-03-21T23:48:55.146Z,8.33
2019-03-21T23:52:01.696Z,9.80
2019-03-21T23:55:09.239Z,12.27
2019-03-21T23:58:15.882Z,16.03
